createdAt,value
2023-05-08T00:01:37.244Z,20.42
2023-05-08T00:04:04.056Z,16.00
2023-05-08T00:06:31.109Z,12.48
2023-05-08T00:08:57.470Z,11.68
2023-05-08T00:11:24.010Z,11.88
2023-05-08T00:13:51.413Z,14.93
2023-05-08T00:16:18.023Z,14.20
2023-05-08T00:18:44.683Z,12.45
2023-05-08T00:21:11.240Z,14.02
2023-05-08T00:23:37.712Z,12.77
2023-05-08T00:26:04.469Z,11.57
2023-05-08T00:28:31.049Z,12.57
2023-05-08T00:30:59.638Z,12.38
2023-05-08T00:33:26.126Z,11.18
2023-05-08T00:36:00.908Z,12.25
2023-05-08T00:38:27.901Z,16.23
2023-05-08T00:40:54.556Z,13.52
2023-05-08T00:43:25.966Z,12.55
2023-05-08T00:45:52.991Z,17.20
2023-05-08T00:48:19.606Z,11.90
2023-05-08T00:50:46.086Z,13.02
2023-05-08T00:53:13.326Z,13.32
2023-05-08T00:55:39.821Z,12.00
2023-05-08T00:58:08.437Z,9.75
2023-05-08T01:00:35.319Z,11.05
2023-05-08T01:03:03.366Z,8.43
2023-05-08T01:05:30.277Z,8.52
2023-05-08T01:07:57.315Z,7.72
2023-05-08T01:10:23.915Z,8.15
2023-05-08T01:13:00.847Z,10.63
2023-05-08T01:15:29.946Z,10.02
2023-05-08T01:17:56.624Z,10.25
2023-05-08T01:20:26.347Z,10.77
2023-05-08T01:22:53.834Z,14.63
2023-05-08T01:25:21.300Z,11.20
2023-05-08T01:27:50.725Z,11.98
2023-05-08T01:30:42.747Z,16.50
2023-05-08T01:33:13.173Z,14.48
2023-05-08T01:35:43.133Z,12.50
2023-05-08T01:38:22.561Z,12.70
2023-05-08T01:40:53.042Z,13.30
2023-05-08T01:43:39.975Z,14.15
2023-05-08T01:46:16.930Z,13.15
2023-05-08T01:48:47.096Z,12.57
2023-05-08T01:51:17.133Z,13.90
2023-05-08T01:53:45.763Z,14.27
2023-05-08T01:56:15.839Z,15.88
2023-05-08T01:58:43.749Z,15.80
2023-05-08T02:01:12.497Z,13.15
2023-05-08T02:03:40.351Z,13.15
2023-05-08T02:06:07.669Z,13.50
2023-05-08T02:08:34.859Z,12.43
2023-05-08T02:11:05.302Z,13.70
2023-05-08T02:13:33.816Z,12.85
2023-05-08T02:16:01.361Z,11.45
2023-05-08T02:18:29.700Z,12.98
2023-05-08T02:20:56.954Z,14.00
2023-05-08T02:23:25.371Z,15.68
2023-05-08T02:25:52.398Z,14.57
2023-05-08T02:28:19.458Z,14.05
2023-05-08T02:30:46.266Z,16.10
2023-05-08T02:33:13.562Z,13.10
2023-05-08T02:35:41.762Z,12.57
2023-05-08T02:38:10.992Z,16.73
2023-05-08T02:40:38.943Z,13.48
2023-05-08T02:43:05.764Z,13.98
2023-05-08T02:45:44.474Z,14.35
2023-05-08T02:48:15.600Z,12.80
2023-05-08T02:50:55.887Z,12.30
2023-05-08T02:53:28.344Z,12.77
2023-05-08T02:56:03.083Z,14.02
2023-05-08T02:58:31.454Z,12.57
2023-05-08T03:01:06.325Z,14.02
2023-05-08T03:03:38.347Z,13.75
2023-05-08T03:06:07.613Z,17.75
2023-05-08T03:08:34.928Z,12.88
2023-05-08T03:11:04.198Z,13.10
2023-05-08T03:13:32.409Z,12.55
2023-05-08T03:16:00.715Z,12.18
2023-05-08T03:18:31.304Z,13.52
2023-05-08T03:20:59.328Z,12.38
2023-05-08T03:23:27.575Z,11.95
2023-05-08T03:25:55.312Z,11.07
2023-05-08T03:28:22.539Z,11.98
2023-05-08T03:30:50.755Z,11.52
2023-05-08T03:33:18.038Z,10.90
2023-05-08T03:35:45.711Z,12.63
2023-05-08T03:38:13.487Z,13.52
2023-05-08T03:40:44.704Z,12.60
2023-05-08T03:43:11.463Z,12.98
2023-05-08T03:45:40.237Z,11.23
2023-05-08T03:48:07.790Z,12.52
2023-05-08T03:50:35.933Z,11.15
2023-05-08T03:53:03.727Z,11.52
2023-05-08T03:55:30.494Z,12.68
2023-05-08T03:57:59.786Z,13.85
2023-05-08T04:00:30.276Z,14.88
2023-05-08T04:03:05.465Z,12.68
2023-05-08T04:05:37.969Z,11.75
2023-05-08T04:08:08.373Z,12.38
2023-05-08T04:10:42.642Z,11.98
2023-05-08T04:13:13.073Z,11.30
2023-05-08T04:15:58.494Z,13.30
2023-05-08T04:18:28.342Z,12.30
2023-05-08T04:20:56.699Z,11.98
2023-05-08T04:23:24.671Z,12.25
2023-05-08T04:25:53.115Z,12.27
2023-05-08T04:28:20.825Z,14.18
2023-05-08T04:30:47.810Z,12.05
2023-05-08T04:33:15.602Z,11.88
2023-05-08T04:35:42.473Z,13.00
2023-05-08T04:38:09.328Z,13.10
2023-05-08T04:40:36.232Z,13.40
2023-05-08T04:43:03.181Z,13.88
2023-05-08T04:45:29.607Z,11.73
2023-05-08T04:47:56.010Z,12.68
2023-05-08T04:50:23.167Z,13.75
2023-05-08T04:52:49.888Z,14.18
2023-05-08T04:55:16.672Z,15.13
2023-05-08T04:57:44.456Z,16.63
2023-05-08T05:00:13.961Z,12.95
2023-05-08T05:02:42.311Z,13.20
2023-05-08T05:05:09.066Z,15.77
2023-05-08T05:07:36.250Z,12.00
2023-05-08T05:10:03.222Z,13.55
2023-05-08T05:12:32.650Z,13.65
2023-05-08T05:14:59.695Z,15.68
2023-05-08T05:17:30.931Z,15.05
2023-05-08T05:19:57.715Z,12.70
2023-05-08T05:22:24.294Z,14.10
2023-05-08T05:24:50.802Z,13.27
2023-05-08T05:27:19.906Z,12.68
2023-05-08T05:29:48.230Z,12.75
2023-05-08T05:32:15.485Z,13.82
2023-05-08T05:34:42.414Z,12.40
2023-05-08T05:37:09.365Z,11.88
2023-05-08T05:39:36.601Z,12.82
2023-05-08T05:42:04.193Z,12.88
2023-05-08T05:44:30.769Z,13.00
2023-05-08T05:46:57.583Z,13.93
2023-05-08T05:49:24.109Z,13.82
2023-05-08T05:51:50.750Z,13.57
2023-05-08T05:54:17.857Z,12.90
2023-05-08T05:56:44.470Z,13.60
2023-05-08T05:59:11.196Z,15.50
2023-05-08T06:01:39.566Z,12.77
2023-05-08T06:04:09.181Z,13.25
2023-05-08T06:06:35.854Z,14.50
2023-05-08T06:09:02.332Z,13.00
2023-05-08T06:11:28.892Z,14.90
2023-05-08T06:13:55.652Z,14.05
2023-05-08T06:16:23.175Z,14.18
2023-05-08T06:18:49.935Z,14.45
2023-05-08T06:21:16.835Z,13.10
2023-05-08T06:23:43.346Z,11.77
2023-05-08T06:26:10.985Z,12.20
2023-05-08T06:28:37.687Z,11.90
2023-05-08T06:31:04.296Z,13.13
2023-05-08T06:33:32.020Z,12.50
2023-05-08T06:35:58.591Z,14.57
2023-05-08T06:38:25.621Z,11.88
2023-05-08T06:40:51.998Z,13.10
2023-05-08T06:43:18.708Z,11.68
2023-05-08T06:45:45.763Z,11.73
2023-05-08T06:48:12.417Z,12.45
2023-05-08T06:50:39.487Z,13.05
2023-05-08T06:53:06.272Z,13.85
2023-05-08T06:55:35.907Z,13.32
2023-05-08T06:58:02.359Z,13.15
2023-05-08T07:00:28.797Z,11.77
2023-05-08T07:02:56.792Z,12.07
2023-05-08T07:05:23.514Z,12.48
2023-05-08T07:07:50.005Z,11.90
2023-05-08T07:10:19.926Z,12.27
2023-05-08T07:12:46.650Z,12.65
2023-05-08T07:15:24.881Z,13.48
2023-05-08T07:17:52.906Z,12.45
2023-05-08T07:20:20.698Z,12.30
2023-05-08T07:22:47.311Z,15.98
2023-05-08T07:25:14.013Z,13.18
2023-05-08T07:27:40.830Z,12.07
2023-05-08T07:30:09.808Z,12.38
2023-05-08T07:32:36.434Z,13.10
2023-05-08T07:35:03.427Z,12.80
2023-05-08T07:37:29.760Z,12.65
2023-05-08T07:39:57.694Z,12.55
2023-05-08T07:42:24.112Z,13.25
2023-05-08T07:44:54.781Z,13.80
2023-05-08T07:47:21.991Z,13.40
2023-05-08T07:49:48.622Z,13.27
2023-05-08T07:52:15.277Z,13.23
2023-05-08T07:54:41.859Z,13.10
2023-05-08T07:57:08.778Z,12.10
2023-05-08T07:59:35.530Z,12.15
2023-05-08T08:02:02.664Z,12.75
2023-05-08T08:04:29.306Z,11.48
2023-05-08T08:06:55.714Z,12.35
2023-05-08T08:09:22.250Z,13.43
2023-05-08T08:11:48.800Z,13.05
2023-05-08T08:14:15.434Z,14.23
2023-05-08T08:16:43.040Z,12.70
2023-05-08T08:19:10.633Z,12.73
2023-05-08T08:21:42.026Z,13.10
2023-05-08T08:24:08.554Z,12.07
2023-05-08T08:26:35.467Z,12.70
2023-05-08T08:29:02.259Z,13.77
2023-05-08T08:31:28.705Z,13.52
2023-05-08T08:33:55.285Z,13.13
2023-05-08T08:36:22.055Z,13.57
2023-05-08T08:38:48.653Z,13.70
2023-05-08T08:41:15.659Z,12.98
2023-05-08T08:43:48.454Z,12.70
2023-05-08T08:46:15.361Z,17.20
2023-05-08T08:48:46.623Z,11.43
2023-05-08T08:51:24.957Z,11.07
2023-05-08T08:53:55.256Z,12.70
2023-05-08T08:56:23.656Z,10.93
2023-05-08T08:58:55.809Z,10.90
2023-05-08T09:01:24.081Z,11.27
2023-05-08T09:03:51.390Z,11.50
2023-05-08T09:06:19.419Z,11.68
2023-05-08T09:08:46.345Z,11.60
2023-05-08T09:11:12.909Z,11.13
2023-05-08T09:13:39.579Z,11.88
2023-05-08T09:16:06.821Z,10.50
2023-05-08T09:18:33.431Z,10.75
2023-05-08T09:21:01.442Z,11.80
2023-05-08T09:23:27.874Z,12.18
2023-05-08T09:25:54.226Z,11.57
2023-05-08T09:28:22.064Z,11.00
2023-05-08T09:30:55.892Z,11.05
2023-05-08T09:33:23.570Z,13.98
2023-05-08T09:35:51.690Z,11.27
2023-05-08T09:38:37.315Z,12.00
2023-05-08T09:41:07.280Z,12.02
2023-05-08T09:43:33.872Z,11.30
2023-05-08T09:46:19.297Z,11.43
2023-05-08T09:48:45.941Z,11.80
2023-05-08T09:51:12.499Z,11.93
2023-05-08T09:53:39.233Z,14.07
2023-05-08T09:56:06.214Z,11.73
2023-05-08T09:58:42.918Z,11.95
2023-05-08T10:01:28.026Z,12.48
2023-05-08T10:03:54.722Z,12.30
2023-05-08T10:06:21.147Z,11.30
2023-05-08T10:08:48.614Z,12.13
2023-05-08T10:11:19.900Z,11.85
2023-05-08T10:13:46.867Z,12.30
2023-05-08T10:16:17.828Z,12.35
2023-05-08T10:18:48.977Z,11.70
2023-05-08T10:21:16.737Z,16.70
2023-05-08T10:23:44.077Z,12.55
2023-05-08T10:26:16.345Z,11.95
2023-05-08T10:28:44.916Z,12.32
2023-05-08T10:31:12.499Z,13.00
2023-05-08T10:33:42.651Z,13.48
2023-05-08T10:36:10.207Z,13.82
2023-05-08T10:38:38.122Z,12.18
2023-05-08T10:41:05.133Z,12.15
2023-05-08T10:43:32.584Z,13.52
2023-05-08T10:46:01.898Z,16.42
2023-05-08T10:48:31.392Z,12.90
2023-05-08T10:51:05.314Z,12.98
2023-05-08T10:53:37.061Z,15.30
2023-05-08T10:56:05.406Z,11.57
2023-05-08T10:58:33.932Z,12.35
2023-05-08T11:01:00.448Z,12.65
2023-05-08T11:03:31.946Z,11.60
2023-05-08T11:06:00.199Z,12.98
2023-05-08T11:08:28.070Z,14.52
2023-05-08T11:11:05.415Z,13.15
2023-05-08T11:13:36.982Z,12.80
2023-05-08T11:16:03.966Z,12.15
2023-05-08T11:18:42.268Z,14.50
2023-05-08T11:21:15.860Z,14.25
2023-05-08T11:23:42.372Z,13.00
2023-05-08T11:26:16.640Z,14.52
2023-05-08T11:28:56.624Z,15.13
2023-05-08T11:31:23.247Z,17.10
2023-05-08T11:33:49.774Z,15.82
2023-05-08T11:36:17.434Z,15.88
2023-05-08T11:38:44.091Z,16.45
2023-05-08T11:41:12.117Z,15.65
2023-05-08T11:43:46.560Z,14.90
2023-05-08T11:46:15.250Z,15.60
2023-05-08T11:48:41.971Z,15.45
2023-05-08T11:51:08.700Z,14.43
2023-05-08T11:53:36.589Z,14.98
2023-05-08T11:56:03.486Z,15.10
2023-05-08T11:58:30.995Z,14.95
2023-05-08T12:00:57.982Z,13.93
2023-05-08T12:03:27.569Z,14.30
2023-05-08T12:05:58.046Z,13.80
2023-05-08T12:08:24.738Z,15.38
2023-05-08T12:10:57.673Z,14.70
2023-05-08T12:13:24.267Z,13.88
2023-05-08T12:15:53.497Z,14.73
2023-05-08T12:18:22.070Z,13.98
2023-05-08T12:20:55.202Z,14.15
2023-05-08T12:23:21.836Z,14.23
2023-05-08T12:25:53.149Z,16.27
2023-05-08T12:28:21.369Z,13.88
2023-05-08T12:30:49.819Z,15.57
2023-05-08T12:33:16.699Z,15.82
2023-05-08T12:35:43.837Z,15.38
2023-05-08T12:38:11.947Z,15.05
2023-05-08T12:40:45.951Z,14.18
2023-05-08T12:43:12.475Z,15.18
2023-05-08T12:45:40.225Z,14.75
2023-05-08T12:48:08.410Z,15.18
2023-05-08T12:50:36.154Z,15.68
2023-05-08T12:53:04.820Z,14.35
2023-05-08T12:55:32.381Z,14.10
2023-05-08T12:58:19.204Z,15.60
2023-05-08T13:00:51.509Z,14.25
2023-05-08T13:03:24.702Z,15.52
2023-05-08T13:05:51.683Z,14.17
2023-05-08T13:08:18.151Z,14.20
2023-05-08T13:10:51.746Z,13.85
2023-05-08T13:13:19.505Z,17.48
2023-05-08T13:15:46.411Z,16.42
2023-05-08T13:18:13.262Z,17.42
2023-05-08T13:20:39.790Z,17.10
2023-05-08T13:23:06.783Z,17.30
2023-05-08T13:25:33.868Z,15.55
2023-05-08T13:28:00.390Z,17.63
2023-05-08T13:30:27.160Z,16.23
2023-05-08T13:32:54.447Z,16.85
2023-05-08T13:35:21.468Z,16.83
2023-05-08T13:37:48.212Z,15.75
2023-05-08T13:40:15.997Z,15.98
2023-05-08T13:42:42.325Z,14.70
2023-05-08T13:45:11.079Z,15.63
2023-05-08T13:47:37.689Z,15.30
2023-05-08T13:50:04.452Z,16.17
2023-05-08T13:52:31.154Z,16.55
2023-05-08T13:54:58.418Z,16.83
2023-05-08T13:57:25.167Z,15.77
2023-05-08T13:59:51.712Z,19.23
2023-05-08T14:02:18.473Z,17.13
2023-05-08T14:04:45.135Z,18.58
2023-05-08T14:07:11.669Z,17.10
2023-05-08T14:09:38.330Z,16.58
2023-05-08T14:12:05.524Z,16.77
2023-05-08T14:14:33.166Z,17.73
2023-05-08T14:17:00.932Z,16.23
2023-05-08T14:19:27.980Z,15.27
2023-05-08T14:21:55.166Z,16.88
2023-05-08T14:24:21.603Z,15.50
2023-05-08T14:26:48.234Z,15.73
2023-05-08T14:29:15.232Z,15.15
2023-05-08T14:31:41.878Z,15.63
2023-05-08T14:34:08.331Z,16.02
2023-05-08T14:36:34.939Z,17.35
2023-05-08T14:39:01.994Z,15.77
2023-05-08T14:41:29.066Z,16.52
2023-05-08T14:43:56.358Z,15.95
2023-05-08T14:46:23.209Z,15.90
2023-05-08T14:48:54.255Z,15.30
2023-05-08T14:51:21.792Z,16.52
2023-05-08T14:53:48.576Z,13.82
2023-05-08T14:56:16.587Z,16.17
2023-05-08T14:58:43.080Z,17.00
2023-05-08T15:01:09.770Z,14.30
2023-05-08T15:03:36.721Z,15.15
2023-05-08T15:06:04.712Z,15.05
2023-05-08T15:08:31.178Z,14.85
2023-05-08T15:10:57.932Z,15.48
2023-05-08T15:13:26.663Z,17.40
2023-05-08T15:15:53.601Z,14.32
2023-05-08T15:18:20.229Z,14.75
2023-05-08T15:20:46.562Z,15.32
2023-05-08T15:23:13.050Z,14.02
2023-05-08T15:25:39.420Z,16.23
2023-05-08T15:28:05.972Z,13.77
2023-05-08T15:30:32.592Z,16.23
2023-05-08T15:32:59.299Z,13.80
2023-05-08T15:35:26.224Z,14.55
2023-05-08T15:37:53.013Z,15.65
2023-05-08T15:40:19.763Z,17.02
2023-05-08T15:42:46.997Z,15.23
2023-05-08T15:45:13.852Z,15.82
2023-05-08T15:47:40.820Z,16.40
2023-05-08T15:50:07.497Z,14.93
2023-05-08T15:52:33.846Z,15.60
2023-05-08T15:55:00.268Z,16.25
2023-05-08T15:57:27.021Z,17.85
2023-05-08T15:59:55.418Z,18.40
2023-05-08T16:02:22.218Z,17.55
2023-05-08T16:04:48.771Z,16.52
2023-05-08T16:07:16.376Z,17.00
2023-05-08T16:09:43.021Z,15.68
2023-05-08T16:12:09.632Z,15.63
2023-05-08T16:14:36.488Z,15.13
2023-05-08T16:17:03.749Z,15.13
2023-05-08T16:19:30.719Z,16.77
2023-05-08T16:21:59.430Z,15.80
2023-05-08T16:24:26.223Z,16.60
2023-05-08T16:26:52.675Z,12.85
2023-05-08T16:29:19.299Z,12.98
2023-05-08T16:31:45.867Z,15.65
2023-05-08T16:34:12.523Z,16.98
2023-05-08T16:36:39.324Z,13.07
2023-05-08T16:39:06.060Z,11.88
2023-05-08T16:41:32.666Z,9.73
2023-05-08T16:43:58.996Z,9.20
2023-05-08T16:46:30.060Z,9.27
2023-05-08T16:48:57.266Z,10.38
2023-05-08T16:51:23.846Z,8.43
2023-05-08T16:53:50.504Z,10.15
2023-05-08T16:56:18.711Z,12.52
2023-05-08T16:58:45.218Z,11.73
2023-05-08T17:01:15.044Z,11.85
2023-05-08T17:03:41.636Z,19.20
2023-05-08T17:06:08.291Z,13.50
2023-05-08T17:08:35.083Z,11.85
2023-05-08T17:11:01.818Z,11.95
2023-05-08T17:13:28.293Z,14.18
2023-05-08T17:15:55.099Z,11.85
2023-05-08T17:18:21.705Z,12.27
2023-05-08T17:20:50.281Z,10.43
2023-05-08T17:23:17.260Z,12.15
2023-05-08T17:25:43.900Z,10.82
2023-05-08T17:28:10.367Z,10.68
2023-05-08T17:30:36.974Z,11.45
2023-05-08T17:33:03.834Z,11.50
2023-05-08T17:35:30.506Z,11.38
2023-05-08T17:37:57.457Z,15.10
2023-05-08T17:40:25.793Z,12.93
2023-05-08T17:42:52.162Z,12.18
2023-05-08T17:45:18.842Z,15.25
2023-05-08T17:47:45.962Z,13.27
2023-05-08T17:50:12.791Z,13.40
2023-05-08T17:52:39.357Z,14.63
2023-05-08T17:55:06.254Z,15.07
2023-05-08T17:57:33.038Z,14.52
2023-05-08T17:59:59.710Z,15.98
2023-05-08T18:02:27.848Z,15.18
2023-05-08T18:04:54.613Z,17.80
2023-05-08T18:07:22.910Z,14.57
2023-05-08T18:09:49.289Z,13.80
2023-05-08T18:12:16.966Z,15.77
2023-05-08T18:14:45.267Z,15.02
2023-05-08T18:17:22.893Z,17.38
2023-05-08T18:19:49.713Z,14.93
2023-05-08T18:22:16.569Z,17.77
2023-05-08T18:24:43.376Z,16.80
2023-05-08T18:27:09.910Z,15.55
2023-05-08T18:29:36.672Z,16.00
2023-05-08T18:32:03.059Z,15.50
2023-05-08T18:34:29.724Z,17.92
2023-05-08T18:36:57.550Z,17.05
2023-05-08T18:39:24.801Z,16.77
2023-05-08T18:41:51.500Z,15.15
2023-05-08T18:44:17.866Z,16.60
2023-05-08T18:46:44.256Z,17.35
2023-05-08T18:49:11.103Z,19.15
2023-05-08T18:51:37.550Z,18.27
2023-05-08T18:54:04.216Z,17.20
2023-05-08T18:56:31.041Z,15.68
2023-05-08T18:58:57.713Z,16.48
2023-05-08T19:01:24.750Z,17.10
2023-05-08T19:03:54.263Z,14.93
2023-05-08T19:06:21.006Z,15.82
2023-05-08T19:08:48.570Z,16.40
2023-05-08T19:11:15.875Z,17.05
2023-05-08T19:13:46.215Z,16.48
2023-05-08T19:16:13.243Z,18.73
2023-05-08T19:18:39.920Z,16.38
2023-05-08T19:21:07.783Z,16.20
2023-05-08T19:23:34.212Z,17.13
2023-05-08T19:26:00.981Z,17.20
2023-05-08T19:28:27.879Z,17.75
2023-05-08T19:30:55.828Z,16.95
2023-05-08T19:33:22.442Z,17.63
2023-05-08T19:35:48.936Z,17.08
2023-05-08T19:38:15.847Z,19.27
2023-05-08T19:40:55.468Z,18.67
2023-05-08T19:43:23.925Z,18.48
2023-05-08T19:45:50.519Z,18.25
2023-05-08T19:48:19.538Z,18.50
2023-05-08T19:50:46.641Z,21.77
2023-05-08T19:53:13.213Z,19.17
2023-05-08T19:55:39.779Z,20.98
2023-05-08T19:58:06.337Z,22.50
2023-05-08T20:00:32.812Z,19.17
2023-05-08T20:02:59.513Z,21.45
2023-05-08T20:05:26.285Z,19.83
2023-05-08T20:07:52.879Z,19.45
2023-05-08T20:10:19.456Z,20.98
2023-05-08T20:12:45.864Z,20.10
2023-05-08T20:15:12.534Z,19.17
2023-05-08T20:17:39.202Z,20.70
2023-05-08T20:20:08.342Z,19.63
2023-05-08T20:22:34.908Z,19.35
2023-05-08T20:25:04.846Z,25.60
2023-05-08T20:27:31.602Z,19.02
2023-05-08T20:29:58.002Z,18.25
2023-05-08T20:32:24.803Z,20.38
2023-05-08T20:34:51.601Z,21.33
2023-05-08T20:37:18.104Z,21.25
2023-05-08T20:39:45.137Z,22.92
2023-05-08T20:42:11.488Z,21.80
2023-05-08T20:44:38.083Z,23.90
2023-05-08T20:47:04.522Z,24.63
2023-05-08T20:49:31.029Z,27.33
2023-05-08T20:51:57.611Z,26.27
2023-05-08T20:54:24.162Z,26.33
2023-05-08T20:56:50.687Z,24.27
2023-05-08T20:59:18.867Z,25.02
2023-05-08T21:01:46.905Z,26.27
2023-05-08T21:04:13.420Z,23.73
2023-05-08T21:06:39.917Z,23.38
2023-05-08T21:09:07.153Z,24.77
2023-05-08T21:11:37.033Z,22.95
2023-05-08T21:14:03.542Z,25.23
2023-05-08T21:16:29.991Z,23.05
2023-05-08T21:18:58.472Z,22.35
2023-05-08T21:21:25.261Z,23.10
2023-05-08T21:23:51.960Z,26.42
2023-05-08T21:26:21.446Z,25.17
2023-05-08T21:28:48.091Z,25.58
2023-05-08T21:31:14.588Z,25.25
2023-05-08T21:33:41.229Z,23.33
2023-05-08T21:36:07.974Z,21.85
2023-05-08T21:38:34.521Z,22.00
2023-05-08T21:41:08.244Z,29.10
2023-05-08T21:43:36.126Z,24.70
2023-05-08T21:46:06.761Z,26.15
2023-05-08T21:48:34.030Z,23.60
2023-05-08T21:51:01.296Z,24.40
2023-05-08T21:53:27.712Z,27.60
2023-05-08T21:55:54.162Z,30.50
2023-05-08T21:58:20.889Z,30.50
2023-05-08T22:00:47.229Z,25.35
2023-05-08T22:03:13.998Z,31.10
2023-05-08T22:05:40.682Z,28.58
2023-05-08T22:08:07.380Z,27.10
2023-05-08T22:10:33.939Z,27.83
2023-05-08T22:13:01.510Z,24.48
2023-05-08T22:15:30.606Z,29.40
2023-05-08T22:17:57.957Z,30.42
2023-05-08T22:20:24.732Z,26.40
2023-05-08T22:22:51.459Z,31.08
2023-05-08T22:25:17.898Z,23.58
2023-05-08T22:27:45.237Z,27.40
2023-05-08T22:30:11.952Z,24.50
2023-05-08T22:32:38.637Z,22.05
2023-05-08T22:35:05.911Z,22.30
2023-05-08T22:37:32.936Z,23.63
2023-05-08T22:39:59.297Z,23.70
2023-05-08T22:42:25.955Z,21.85
2023-05-08T22:44:52.695Z,21.95
2023-05-08T22:47:19.280Z,22.58
2023-05-08T22:49:46.602Z,21.73
2023-05-08T22:52:13.434Z,23.85
2023-05-08T22:54:39.955Z,25.65
2023-05-08T22:57:06.305Z,24.55
2023-05-08T22:59:32.796Z,27.50
2023-05-08T23:01:59.355Z,28.20
2023-05-08T23:04:26.203Z,24.73
2023-05-08T23:06:54.006Z,28.00
2023-05-08T23:09:20.454Z,29.25
2023-05-08T23:11:47.729Z,25.05
2023-05-08T23:14:15.335Z,26.05
2023-05-08T23:16:41.722Z,22.08
2023-05-08T23:19:10.138Z,26.48
2023-05-08T23:21:39.138Z,25.27
2023-05-08T23:24:05.831Z,23.25
2023-05-08T23:26:32.350Z,24.00
2023-05-08T23:28:58.890Z,20.73
2023-05-08T23:31:25.346Z,21.10
2023-05-08T23:33:51.945Z,21.10
2023-05-08T23:36:18.627Z,26.85
2023-05-08T23:38:45.182Z,26.10
2023-05-08T23:41:12.367Z,24.98
2023-05-08T23:43:39.297Z,22.17
2023-05-08T23:46:06.437Z,23.15
2023-05-08T23:48:33.198Z,22.40
2023-05-08T23:50:59.587Z,20.25
2023-05-08T23:53:26.143Z,21.00
2023-05-08T23:55:52.737Z,21.27
2023-05-08T23:58:19.638Z,23.35
